WetterOnline ( https://www.wetteronline.ch )

Wetter aktuell Pfälzer Wald (in 400m)

Aktuelles Wetter: Weinbiet/Pfalz (557m)

6-stündlich | Neueste Meldungen
Ortszeit Temperatur Wetter
Fr, 03.04. 20:00 7.1° C bedeckt
Fr, 03.04. 14:00 8.2° C bewölkt
Fr, 03.04. 8:00 1.9° C bedeckt
Fr, 03.04. 2:00 2.4° C wolkenlos
Do, 02.04. 20:00 8.6° C wolkenlos
Do, 02.04. 14:00 9.2° C wolkenlos
Do, 02.04. 8:00 3.6° C wolkenlos
Do, 02.04. 2:00 4.2° C wolkenlos
Ortszeit Temperatur Wetter
Sa, 04.04. 1:30 3.7° C leicht bewölkt
Sa, 04.04. 1:20 3.7° C leicht bewölkt
Sa, 04.04. 1:10 3.8° C leicht bewölkt
Sa, 04.04. 1:00 4.0° C bedeckt
Sa, 04.04. 0:50 4.0° C bedeckt
Sa, 04.04. 0:40 4.6° C bedeckt
Sa, 04.04. 0:30 4.5° C bedeckt
Sa, 04.04. 0:00 4.7° C leicht bewölkt
Ortszeit Relative Feuchte Sichtweite
Fr, 03.04. 20:00 64% 10 km
Fr, 03.04. 14:00 53% 10 km
Fr, 03.04. 8:00 78% 10 km
Fr, 03.04. 2:00 72% 10 km
Do, 02.04. 20:00 38% 10 km
Do, 02.04. 14:00 35% 10 km
Do, 02.04. 8:00 46% 10 km
Do, 02.04. 2:00 37% 10 km
Ortszeit Relative Feuchte Sichtweite
Sa, 04.04. 1:30 71% 10 km
Sa, 04.04. 1:20 71% -
Sa, 04.04. 1:10 71% -
Sa, 04.04. 1:00 70% 10 km
Sa, 04.04. 0:50 70% -
Sa, 04.04. 0:40 66% -
Sa, 04.04. 0:30 68% 10 km
Sa, 04.04. 0:00 66% 10 km
Ortszeit Niederschlagsmenge Niederschlagsart
Fr, 03.04. 20:00 0.0 l/m2 in 12 Std. -
Fr, 03.04. 14:00 0.0 l/m2 in 6 Std. -
Fr, 03.04. 8:00 0.0 l/m2 in 12 Std. -
Fr, 03.04. 2:00 0.0 l/m2 in 6 Std. -
Do, 02.04. 20:00 0.0 l/m2 in 12 Std. -
Do, 02.04. 14:00 0.0 l/m2 in 6 Std. -
Do, 02.04. 8:00 0.0 l/m2 in 12 Std. -
Do, 02.04. 2:00 0.0 l/m2 in 6 Std. -
Ortszeit Niederschlagsmenge Niederschlagsart
Sa, 04.04. 1:30 0.0 l/m2 in 1 Std. -
Sa, 04.04. 1:20 keine Meldung -
Sa, 04.04. 1:10 keine Meldung -
Sa, 04.04. 1:00 0.0 l/m2 in 1 Std. -
Sa, 04.04. 0:50 keine Meldung -
Sa, 04.04. 0:40 keine Meldung -
Sa, 04.04. 0:30 0.0 l/m2 in 1 Std. -
Sa, 04.04. 0:00 0.0 l/m2 in 1 Std. -
Ortszeit Stärke Spitze Richtung
km/h Bft. km/h Grad Sektor
Fr, 03.04. 20:00 13 3 41 270° W
Fr, 03.04. 14:00 30 5 41 280° W
Fr, 03.04. 8:00 26 4 33 260° W
Fr, 03.04. 2:00 17 3 50 280° W
Do, 02.04. 20:00 25 4 40 270° W
Do, 02.04. 14:00 13 3 22 100° O
Do, 02.04. 8:00 7 2 22 70° O
Do, 02.04. 2:00 11 2 20 60° NO
Ortszeit Stärke Spitze Richtung
km/h Bft. km/h Grad Sektor
Sa, 04.04. 1:30 13 3 17 290° W
Sa, 04.04. 1:20 13 3 - 290° W
Sa, 04.04. 1:10 13 3 - 280° W
Sa, 04.04. 1:00 13 3 20 280° W
Sa, 04.04. 0:50 13 3 - 280° W
Sa, 04.04. 0:40 14 3 - 310° NW
Sa, 04.04. 0:30 17 3 20 300° NW
Sa, 04.04. 0:00 14 3 25 300° NW
Ortszeit Untergrenze Bedeckung Gattung
total tief tief mittel hoch
Fr, 03.04. 20:00 1500 m 8/8 8/8 - - -
Fr, 03.04. 14:00 1200 m 7/8 7/8 - - -
Fr, 03.04. 8:00 1140 m 8/8 8/8 - - -
Fr, 03.04. 2:00 - 0/8 0/8 - - -
Do, 02.04. 20:00 - 0/8 0/8 - - -
Do, 02.04. 14:00 - 0/8 0/8 - - -
Do, 02.04. 8:00 - 0/8 0/8 - - -
Do, 02.04. 2:00 - 0/8 0/8 - - -
Ortszeit Bedeckungsgrad in Achtel und Wolkenuntergrenze
Sa, 04.04. 1:30 2(1380m)
Sa, 04.04. 1:20 2(1380m)
Sa, 04.04. 1:10 4(1350m)
Sa, 04.04. 1:00 8(1350m)
Sa, 04.04. 0:50 8(1350m)
Sa, 04.04. 0:40 8(1350m)
Sa, 04.04. 0:30 8(1410m)
Sa, 04.04. 0:00 4(1410m)
Ortszeit Luftdruck NN (hPa) Tendenz (hPa in 3 Std.)
Fr, 03.04. 20:00 1019 + 1,0
Fr, 03.04. 14:00 1017 + 0,5
Fr, 03.04. 8:00 1016 + 0,8
Fr, 03.04. 2:00 1015 + 0,8
Do, 02.04. 20:00 1011 - 0,2
Do, 02.04. 14:00 1013 - 1,1
Do, 02.04. 8:00 1015 - 0,4
Do, 02.04. 2:00 1016 - 0,8
Ortszeit Luftdruck NN (hPa) Tendenz (hPa in 3 Std.)
Sa, 04.04. 1:30 1022 + 0,7
Sa, 04.04. 1:20 1022 keine Meldung
Sa, 04.04. 1:10 1022 keine Meldung
Sa, 04.04. 1:00 1022 + 1,2
Sa, 04.04. 0:50 1022 keine Meldung
Sa, 04.04. 0:40 1022 keine Meldung
Sa, 04.04. 0:30 1022 + 1,4
Sa, 04.04. 0:00 1022 + 1,3
Ortszeit Schneehöhe (cm)
Fr, 03.04. 20:00 0
Fr, 03.04. 14:00 0
Fr, 03.04. 8:00 0
Fr, 03.04. 2:00 0
Do, 02.04. 20:00 0
Do, 02.04. 14:00 0
Do, 02.04. 8:00 0
Do, 02.04. 2:00 0
Ortszeit Schneehöhe (cm)
Sa, 04.04. 1:30 0
Sa, 04.04. 1:20 0
Sa, 04.04. 1:10 0
Sa, 04.04. 1:00 0
Sa, 04.04. 0:50 0
Sa, 04.04. 0:40 0
Sa, 04.04. 0:30 0
Sa, 04.04. 0:00 0
Link zu dieser Seite / Seite empfehlen

Das Wetter in ...